Time;durP1;ratioP1;P1;durP2;ratioP2;P2;SDS_P1;SDS_P2;PMS_P1;PMS_P2;Temp;Humidity;BMP_temperature;BMP_pressure;BME280_temperature;BME280_humidity;BME280_pressure;Samples;Min_cycle;Max_cycle;Signal;HPM_P1;HPM_P2
2023/07/21 00:02:24;;;;;;;;;;;;;;;22.68;49.19;101242.34;5036127;28;19921;-79
2023/07/21 00:04:49;;;;;;;;;;;;;;;22.66;49.33;101239.84;5054465;28;19913;-78
2023/07/21 00:07:15;;;;;;;;;;;;;;;22.65;49.38;101240.03;5052362;28;19979;-79
2023/07/21 00:09:40;;;;;;;;;;;;;;;22.64;49.35;101232.91;5055201;28;19920;-79
2023/07/21 00:12:05;;;;;;;;;;;;;;;22.63;49.37;101233.94;5053124;28;19921;-79
2023/07/21 00:14:30;;;;;;;;;;;;;;;22.62;49.21;101234.97;5053222;28;19913;-79
2023/07/21 00:16:56;;;;;;;;;;;;;;;22.62;49.28;101238.53;5054616;28;19956;-79
2023/07/21 00:19:21;;;;;;;;;;;;;;;22.62;49.47;101234.97;5050314;28;20390;-79
2023/07/21 00:21:46;;;;;;;;;;;;;;;22.61;49.40;101239.56;5054228;28;20431;-79
2023/07/21 00:24:13;;;;;;;;;;;;;;;22.60;49.49;101229.75;5054906;28;19981;-79
2023/07/21 00:26:38;;;;;;;;;;;;;;;22.60;49.14;101228.88;5053576;28;19920;-79
2023/07/21 00:29:03;;;;;;;;;;;;;;;22.60;49.27;101231.59;5052132;28;19913;-79
2023/07/21 00:31:29;;;;;;;;;;;;;;;22.59;49.42;101232.63;5053494;28;19935;-78
2023/07/21 00:33:54;;;;;;;;;;;;;;;22.58;49.13;101233.66;5053435;28;19913;-79
2023/07/21 00:36:20;;;;;;;;;;;;;;;22.58;49.40;101222.81;5053447;28;19939;-79
2023/07/21 00:38:46;;;;;;;;;;;;;;;22.58;49.57;101230.97;5053757;28;19917;-78
2023/07/21 00:41:12;;;;;;;;;;;;;;;22.57;49.25;101227.41;5048889;28;19916;-79
2023/07/21 00:43:37;;;;;;;;;;;;;;;22.57;49.51;101226.56;5055006;28;19951;-79
2023/07/21 00:46:02;;;;;;;;;;;;;;;22.57;49.14;101221.16;5052321;28;19924;-79
2023/07/21 00:48:27;;;;;;;;;;;;;;;22.57;49.45;101221.16;5054321;28;19913;-78
2023/07/21 00:50:53;;;;;;;;;;;;;;;22.56;49.47;101220.31;5055086;28;20012;-78
2023/07/21 00:53:18;;;;;;;;;;;;;;;22.55;49.46;101221.31;5052433;28;20011;-78
2023/07/21 00:55:46;;;;;;;;;;;;;;;22.55;49.23;101217.78;5083666;28;19920;-78
2023/07/21 00:58:11;;;;;;;;;;;;;;;22.54;49.30;101211.50;5055457;28;19980;-78
2023/07/21 01:00:36;;;;;;;;;;;;;;;22.54;49.42;101216.94;5069957;28;19913;-78
2023/07/21 01:03:02;;;;;;;;;;;;;;;22.54;49.29;101214.22;5053736;28;19914;-78
2023/07/21 01:05:28;;;;;;;;;;;;;;;22.54;49.07;101216.09;5058004;28;19920;-78
2023/07/21 01:07:53;;;;;;;;;;;;;;;22.54;49.11;101207.97;5087507;28;19917;-78
2023/07/21 01:10:20;;;;;;;;;;;;;;;22.53;49.35;101209.84;5054946;28;19975;-78
2023/07/21 01:12:45;;;;;;;;;;;;;;;22.52;49.21;101200.03;5084580;28;19936;-78
2023/07/21 01:15:10;;;;;;;;;;;;;;;22.53;49.16;101198.16;5052276;28;19913;-78
2023/07/21 01:17:35;;;;;;;;;;;;;;;22.52;49.36;101186.47;5050719;28;19952;-79
2023/07/21 01:20:01;;;;;;;;;;;;;;;22.52;49.15;101180.22;5051732;28;20115;-78
2023/07/21 01:22:35;;;;;;;;;;;;;;;22.51;49.22;101176.66;5087688;28;19920;-78
2023/07/21 01:25:06;;;;;;;;;;;;;;;22.52;49.27;101185.66;5051455;28;19929;-78
2023/07/21 01:27:32;;;;;;;;;;;;;;;22.52;49.24;101180.22;5054285;28;19921;-78
2023/07/21 01:29:58;;;;;;;;;;;;;;;22.51;49.21;101182.06;5067379;28;19966;-78
2023/07/21 01:32:26;;;;;;;;;;;;;;;22.50;49.05;101172.25;5052098;28;20392;-78
2023/07/21 01:34:52;;;;;;;;;;;;;;;22.51;49.04;101179.34;5079573;28;19968;-79
2023/07/21 01:37:17;;;;;;;;;;;;;;;22.50;49.12;101176.84;5051794;28;19913;-79
2023/07/21 01:39:42;;;;;;;;;;;;;;;22.50;49.34;101174.97;5049708;28;20011;-78
2023/07/21 01:42:08;;;;;;;;;;;;;;;22.49;48.86;101167.88;5049083;28;19980;-79
2023/07/21 01:44:33;;;;;;;;;;;;;;;22.49;49.29;101162.47;5068674;28;19917;-79
2023/07/21 01:46:58;;;;;;;;;;;;;;;22.49;49.02;101159.75;5066706;28;20000;-79
2023/07/21 01:49:24;;;;;;;;;;;;;;;22.49;49.02;101165.16;5048795;28;19920;-78
2023/07/21 01:51:49;;;;;;;;;;;;;;;22.49;48.95;101158.91;5053893;28;19993;-79
2023/07/21 01:54:20;;;;;;;;;;;;;;;22.49;49.23;101164.34;5053220;28;20302;-78
2023/07/21 01:56:47;;;;;;;;;;;;;;;22.48;49.17;101163.50;5050037;28;19913;-79
2023/07/21 01:59:12;;;;;;;;;;;;;;;22.48;49.05;101162.66;5087831;28;20011;-78
2023/07/21 02:01:37;;;;;;;;;;;;;;;22.47;48.96;101164.50;5067162;28;19974;-79
2023/07/21 02:04:03;;;;;;;;;;;;;;;22.47;48.78;101156.38;5052478;28;19913;-79
2023/07/21 02:06:29;;;;;;;;;;;;;;;22.46;49.09;101155.53;5034646;28;19913;-78
2023/07/21 02:08:54;;;;;;;;;;;;;;;22.46;48.88;101151.97;5080568;28;19951;-78
2023/07/21 02:11:20;;;;;;;;;;;;;;;22.45;49.03;101151.16;5050569;28;19960;-78
2023/07/21 02:13:45;;;;;;;;;;;;;;;22.46;48.91;101151.97;5033277;28;19920;-79
2023/07/21 02:16:10;;;;;;;;;;;;;;;22.45;49.01;101148.44;5051612;28;19913;-78
2023/07/21 02:18:37;;;;;;;;;;;;;;;22.44;48.81;101154.91;5052562;28;19976;-78
2023/07/21 02:21:02;;;;;;;;;;;;;;;22.44;49.01;101151.34;5051652;28;20374;-78
2023/07/21 02:23:28;;;;;;;;;;;;;;;22.44;49.11;101148.63;5052072;28;19951;-78
2023/07/21 02:25:53;;;;;;;;;;;;;;;22.43;48.82;101149.66;5052433;28;19913;-78
2023/07/21 02:28:18;;;;;;;;;;;;;;;22.43;48.86;101147.78;5065916;28;19921;-78
2023/07/21 02:30:43;;;;;;;;;;;;;;;22.41;48.95;101144.41;5050629;28;19917;-78
2023/07/21 02:33:10;;;;;;;;;;;;;;;22.41;48.86;101141.72;5050720;28;19943;-79
2023/07/21 02:35:35;;;;;;;;;;;;;;;22.42;48.96;101147.97;5046227;28;20008;-78
2023/07/21 02:38:03;;;;;;;;;;;;;;;22.41;48.83;101140.88;5051931;28;20052;-79
2023/07/21 02:40:30;;;;;;;;;;;;;;;22.41;48.87;101146.28;5052425;28;19939;-78
2023/07/21 02:42:55;;;;;;;;;;;;;;;22.40;48.74;101141.91;5050252;28;20263;-78
2023/07/21 02:45:21;;;;;;;;;;;;;;;22.40;48.87;101140.03;5085409;28;19940;-78
2023/07/21 02:47:46;;;;;;;;;;;;;;;22.40;48.72;101141.91;5052090;28;20435;-78
2023/07/21 02:50:11;;;;;;;;;;;;;;;22.39;48.67;101132.94;5051690;28;19928;-78
2023/07/21 02:52:38;;;;;;;;;;;;;;;22.38;48.66;101139.38;5082679;28;19996;-78
2023/07/21 02:55:05;;;;;;;;;;;;;;;22.38;48.99;101136.66;5048906;28;19913;-79
2023/07/21 02:57:31;;;;;;;;;;;;;;;22.38;48.76;101133.94;5081431;28;19936;-79
2023/07/21 02:59:56;;;;;;;;;;;;;;;22.37;49.00;101131.44;5052301;28;19917;-79
2023/07/21 03:02:22;;;;;;;;;;;;;;;22.38;48.90;101133.09;5079483;28;19930;-79
2023/07/21 03:04:47;;;;;;;;;;;;;;;22.36;48.70;101127.06;5081440;28;19917;-79
2023/07/21 03:07:12;;;;;;;;;;;;;;;22.36;48.89;101133.31;5049881;28;19920;-79
2023/07/21 03:09:37;;;;;;;;;;;;;;;22.35;48.81;101128.09;5031550;28;19928;-79
2023/07/21 03:12:03;;;;;;;;;;;;;;;22.35;48.75;101130.78;5051785;28;19936;-79
2023/07/21 03:14:28;;;;;;;;;;;;;;;22.34;48.62;101116.38;5051106;28;19940;-79
2023/07/21 03:16:53;;;;;;;;;;;;;;;22.33;48.85;101125.53;5083820;28;20270;-79
2023/07/21 03:19:18;;;;;;;;;;;;;;;22.34;48.75;101131.78;5050652;28;19921;-79
2023/07/21 03:21:44;;;;;;;;;;;;;;;22.33;48.73;101124.69;5052701;28;19913;-79
2023/07/21 03:24:09;;;;;;;;;;;;;;;22.32;48.59;101125.75;5047507;28;19967;-79
2023/07/21 03:26:34;;;;;;;;;;;;;;;22.31;48.85;101127.59;5053402;28;19917;-79
2023/07/21 03:29:00;;;;;;;;;;;;;;;22.31;48.89;101124.91;5047390;28;19913;-79
2023/07/21 03:31:25;;;;;;;;;;;;;;;22.30;48.65;101123.22;5048466;28;19918;-79
2023/07/21 03:33:50;;;;;;;;;;;;;;;22.31;48.85;101124.06;5083724;28;20012;-78
2023/07/21 03:36:16;;;;;;;;;;;;;;;22.29;48.54;101121.53;5046936;28;19913;-79
2023/07/21 03:38:41;;;;;;;;;;;;;;;22.28;48.73;101122.56;5066781;28;19921;-79
2023/07/21 03:41:07;;;;;;;;;;;;;;;22.28;48.54;101125.25;5052050;28;19913;-79
2023/07/21 03:43:32;;;;;;;;;;;;;;;22.27;48.55;101123.59;5065230;28;19917;-79
2023/07/21 03:45:58;;;;;;;;;;;;;;;22.27;48.71;101126.28;5050435;28;19913;-79
2023/07/21 03:48:24;;;;;;;;;;;;;;;22.27;48.95;101125.47;5052105;28;19979;-79
2023/07/21 03:50:49;;;;;;;;;;;;;;;22.26;48.59;101123.75;5049653;28;20390;-79
2023/07/21 03:53:14;;;;;;;;;;;;;;;22.26;48.48;101124.63;5049877;28;19917;-79
2023/07/21 03:55:41;;;;;;;;;;;;;;;22.26;48.46;101126.47;5046169;28;19923;-79
2023/07/21 03:58:06;;;;;;;;;;;;;;;22.25;48.65;101122.09;5047592;28;19913;-78
2023/07/21 04:00:32;;;;;;;;;;;;;;;22.25;48.68;101124.78;5052510;28;19917;-78
2023/07/21 04:02:57;;;;;;;;;;;;;;;22.24;48.69;101121.25;5046422;28;19923;-79
2023/07/21 04:05:22;;;;;;;;;;;;;;;22.24;48.63;101118.53;5082960;28;19924;-78
2023/07/21 04:07:47;;;;;;;;;;;;;;;22.24;48.46;101117.69;5053616;28;19913;-78
2023/07/21 04:10:13;;;;;;;;;;;;;;;22.24;48.78;101112.28;5051511;28;19953;-78
2023/07/21 04:12:39;;;;;;;;;;;;;;;22.23;48.69;101116.84;5083396;28;19921;-78
2023/07/21 04:15:04;;;;;;;;;;;;;;;22.23;48.79;101113.31;5056291;28;20035;-78
2023/07/21 04:17:30;;;;;;;;;;;;;;;22.23;48.65;101114.16;5055196;28;20003;-78
2023/07/21 04:19:57;;;;;;;;;;;;;;;22.23;48.54;101111.44;5051367;28;19921;-78
2023/07/21 04:22:23;;;;;;;;;;;;;;;22.23;48.85;101113.31;5053897;28;19928;-78
2023/07/21 04:24:48;;;;;;;;;;;;;;;22.23;49.01;101110.59;5083353;28;19913;-78
2023/07/21 04:27:15;;;;;;;;;;;;;;;22.22;48.82;101112.47;5052397;28;21478;-79
2023/07/21 04:29:40;;;;;;;;;;;;;;;22.23;49.02;101107.91;5083859;28;19939;-78
2023/07/21 04:32:06;;;;;;;;;;;;;;;22.21;49.02;101111.59;5068171;28;19920;-78
2023/07/21 04:34:31;;;;;;;;;;;;;;;22.22;48.98;101112.47;5054712;28;19913;-79
2023/07/21 04:36:57;;;;;;;;;;;;;;;22.22;48.65;101109.78;5084071;28;19940;-79
2023/07/21 04:39:22;;;;;;;;;;;;;;;22.21;49.03;101110.78;5085953;28;19917;-78
2023/07/21 04:41:47;;;;;;;;;;;;;;;22.22;48.83;101112.47;5087739;28;19920;-79
2023/07/21 04:44:12;;;;;;;;;;;;;;;22.22;49.10;101112.47;5052866;28;19926;-78
2023/07/21 04:46:37;;;;;;;;;;;;;;;22.22;49.15;101115.19;5051663;28;20398;-79
2023/07/21 04:49:07;;;;;;;;;;;;;;;22.22;48.77;101104.34;5086300;28;20382;-73
2023/07/21 04:51:32;;;;;;;;;;;;;;;22.21;49.18;101108.91;5049007;28;19921;-75
2023/07/21 04:53:57;;;;;;;;;;;;;;;22.22;49.28;101104.34;5050759;28;20454;-74
2023/07/21 04:56:22;;;;;;;;;;;;;;;22.21;49.43;101095.34;5032859;28;20421;-74
2023/07/21 04:58:48;;;;;;;;;;;;;;;22.23;49.36;101094.34;5051265;28;20374;-75
2023/07/21 05:01:15;;;;;;;;;;;;;;;22.21;49.64;101098.06;5054138;28;19913;-76
2023/07/21 05:03:41;;;;;;;;;;;;;;;22.22;49.41;101093.50;5051422;28;19928;-75
2023/07/21 05:06:09;;;;;;;;;;;;;;;22.22;49.70;101090.81;5051544;28;19917;-76
2023/07/21 05:08:34;;;;;;;;;;;;;;;22.22;49.42;101098.94;5047847;28;20021;-76
2023/07/21 05:10:59;;;;;;;;;;;;;;;22.22;49.65;101093.50;5050582;28;19917;-76
2023/07/21 05:13:25;;;;;;;;;;;;;;;22.22;49.40;101088.09;5084740;28;19914;-76
2023/07/21 05:15:50;;;;;;;;;;;;;;;22.22;49.64;101090.81;5083086;28;19928;-77
2023/07/21 05:18:15;;;;;;;;;;;;;;;22.22;49.66;101090.81;5047974;28;19928;-76
2023/07/21 05:20:41;;;;;;;;;;;;;;;22.22;49.42;101098.94;5051141;28;19956;-76
2023/07/21 05:23:06;;;;;;;;;;;;;;;22.22;49.51;101104.34;5053237;28;20008;-77
2023/07/21 05:25:32;;;;;;;;;;;;;;;22.23;49.67;101094.34;5047552;28;19917;-77
2023/07/21 05:27:57;;;;;;;;;;;;;;;22.23;49.71;101107.91;5054424;28;19913;-77
2023/07/21 05:30:22;;;;;;;;;;;;;;;22.23;49.57;101105.19;5051918;28;19977;-73
2023/07/21 05:32:47;;;;;;;;;;;;;;;22.21;49.73;101106.19;5065243;28;19917;-76
2023/07/21 05:35:13;;;;;;;;;;;;;;;22.23;49.73;101106.03;5051703;28;19913;-77
2023/07/21 05:37:38;;;;;;;;;;;;;;;22.22;49.80;101107.06;5052097;28;19924;-76
2023/07/21 05:40:05;;;;;;;;;;;;;;;22.22;49.64;101104.34;5052798;28;19935;-77
2023/07/21 05:42:30;;;;;;;;;;;;;;;22.22;49.57;101109.78;5054012;28;19920;-75
2023/07/21 05:44:55;;;;;;;;;;;;;;;22.21;49.84;101095.34;5065353;28;19917;-76
2023/07/21 05:47:21;;;;;;;;;;;;;;;22.22;50.02;101096.22;5051037;28;20333;-77
2023/07/21 05:49:46;;;;;;;;;;;;;;;22.23;49.71;101105.19;5051768;28;20928;-76
2023/07/21 05:52:11;;;;;;;;;;;;;;;22.22;49.90;101096.22;5029654;28;19913;-76
2023/07/21 05:54:37;;;;;;;;;;;;;;;22.21;49.98;101102.66;5049804;28;19924;-77
2023/07/21 05:57:02;;;;;;;;;;;;;;;22.21;50.09;101097.22;5084247;28;19917;-78
2023/07/21 05:59:27;;;;;;;;;;;;;;;22.21;50.17;101099.94;5048970;28;19963;-78
2023/07/21 06:01:57;;;;;;;;;;;;;;;22.22;50.00;101104.34;5054213;28;19919;-77
2023/07/21 06:04:22;;;;;;;;;;;;;;;22.22;50.07;101107.06;5082147;28;19924;-77
2023/07/21 06:06:47;;;;;;;;;;;;;;;22.22;49.96;101109.78;5053295;28;19917;-78
2023/07/21 06:09:13;;;;;;;;;;;;;;;22.22;50.04;101098.94;5051823;28;19967;-78
2023/07/21 06:11:38;;;;;;;;;;;;;;;22.23;49.89;101105.19;5084149;28;19918;-78
2023/07/21 06:14:03;;;;;;;;;;;;;;;22.21;49.99;101094.53;5031771;28;19919;-77
2023/07/21 06:16:29;;;;;;;;;;;;;;;22.21;50.07;101098.06;5054232;28;19912;-77
2023/07/21 06:18:54;;;;;;;;;;;;;;;22.20;49.95;101101.81;5046948;28;19925;-77
2023/07/21 06:21:22;;;;;;;;;;;;;;;22.21;50.14;101087.22;5052279;28;19913;-77
2023/07/21 06:23:47;;;;;;;;;;;;;;;22.21;49.97;101089.09;5051073;28;19913;-75
2023/07/21 06:26:13;;;;;;;;;;;;;;;22.21;49.91;101089.09;5080483;28;19921;-76
2023/07/21 06:28:38;;;;;;;;;;;;;;;22.21;50.31;101089.94;5035243;28;19921;-76
2023/07/21 06:31:03;;;;;;;;;;;;;;;22.21;50.21;101089.09;5066021;28;20634;-76
2023/07/21 06:33:28;;;;;;;;;;;;;;;22.20;49.87;101096.38;5050998;28;19913;-77
2023/07/21 06:35:54;;;;;;;;;;;;;;;22.22;50.00;101093.50;5051476;28;19913;-75
2023/07/21 06:38:19;;;;;;;;;;;;;;;22.22;50.17;101096.22;5053316;28;19920;-77
2023/07/21 06:40:44;;;;;;;;;;;;;;;22.23;50.09;101099.78;5049224;28;19913;-77
2023/07/21 06:43:09;;;;;;;;;;;;;;;22.22;49.84;101104.34;5050371;28;19943;-76
2023/07/21 06:45:39;;;;;;;;;;;;;;;22.21;50.09;101095.34;5051396;28;19920;-77
2023/07/21 06:48:05;;;;;;;;;;;;;;;22.20;50.22;101093.69;5048605;28;19999;-77
2023/07/21 06:50:30;;;;;;;;;;;;;;;22.21;49.91;101092.66;5047397;28;20354;-73
2023/07/21 06:52:55;;;;;;;;;;;;;;;22.21;50.15;101092.66;5062903;28;19913;-76
2023/07/21 06:55:21;;;;;;;;;;;;;;;22.20;50.02;101088.28;5052586;28;19944;-75
2023/07/21 06:57:46;;;;;;;;;;;;;;;22.21;49.92;101081.81;5051401;28;19936;-76
2023/07/21 07:00:14;;;;;;;;;;;;;;;22.21;50.05;101086.41;5081820;28;19917;-74
2023/07/21 07:02:39;;;;;;;;;;;;;;;22.21;49.68;101097.22;5052010;28;19917;-75
2023/07/21 07:05:05;;;;;;;;;;;;;;;22.22;49.65;101093.50;5048950;28;19913;-76
2023/07/21 07:07:30;;;;;;;;;;;;;;;22.22;50.01;101090.81;5052065;28;19924;-75
2023/07/21 07:09:55;;;;;;;;;;;;;;;22.23;49.67;101084.34;5048648;28;19992;-76
2023/07/21 07:12:20;;;;;;;;;;;;;;;22.22;49.75;101088.09;5048390;28;19972;-76
2023/07/21 07:14:46;;;;;;;;;;;;;;;22.22;49.64;101079.97;5047443;28;19936;-76
2023/07/21 07:17:12;;;;;;;;;;;;;;;22.23;49.62;101078.94;5051534;28;19917;-76
2023/07/21 07:19:38;;;;;;;;;;;;;;;22.24;49.39;101080.63;5043132;28;19922;-77
2023/07/21 07:22:05;;;;;;;;;;;;;;;22.25;49.38;101082.28;5032470;28;19920;-75
2023/07/21 07:24:30;;;;;;;;;;;;;;;22.25;49.31;101079.59;5036544;28;19951;-76
2023/07/21 07:26:55;;;;;;;;;;;;;;;22.27;49.19;101074.00;5045628;28;20370;-77
2023/07/21 07:29:21;;;;;;;;;;;;;;;22.27;49.55;101072.13;5065005;28;20464;-77
2023/07/21 07:31:46;;;;;;;;;;;;;;;22.27;49.58;101072.13;5081164;28;19923;-77
2023/07/21 07:34:11;;;;;;;;;;;;;;;22.28;49.36;101073.81;5049299;28;19917;-76
2023/07/21 07:36:37;;;;;;;;;;;;;;;22.28;49.41;101076.50;5030492;28;19917;-76
2023/07/21 07:39:03;;;;;;;;;;;;;;;22.28;49.36;101075.66;5049911;28;19934;-74
2023/07/21 07:41:28;;;;;;;;;;;;;;;22.27;49.49;101066.72;5049002;28;19944;-77
2023/07/21 07:43:53;;;;;;;;;;;;;;;22.28;49.51;101064.84;5048078;28;19921;-74
2023/07/21 07:46:18;;;;;;;;;;;;;;;22.28;49.50;101059.41;5049335;28;20015;-76
2023/07/21 07:48:45;;;;;;;;;;;;;;;22.28;49.39;101060.25;5065476;28;19994;-77
2023/07/21 07:51:10;;;;;;;;;;;;;;;22.28;49.66;101054.00;5054322;28;19925;-76
2023/07/21 07:53:35;;;;;;;;;;;;;;;22.27;49.68;101057.75;5081051;28;19976;-75
2023/07/21 07:56:01;;;;;;;;;;;;;;;22.27;49.86;101066.72;5052756;28;19913;-77
2023/07/21 07:58:26;;;;;;;;;;;;;;;22.28;49.71;101064.84;5081299;28;19916;-76
2023/07/21 08:00:54;;;;;;;;;;;;;;;22.28;49.85;101071.09;5052655;28;19921;-78
2023/07/21 08:03:19;;;;;;;;;;;;;;;22.28;49.83;101068.38;5066457;28;19921;-78
2023/07/21 08:05:47;;;;;;;;;;;;;;;22.29;49.70;101070.06;5083428;28;20050;-77
2023/07/21 08:08:13;;;;;;;;;;;;;;;22.28;50.01;101071.09;5083025;28;19921;-78
2023/07/21 08:10:38;;;;;;;;;;;;;;;22.29;49.85;101071.94;5036601;28;19920;-76
2023/07/21 08:13:06;;;;;;;;;;;;;;;22.29;50.03;101080.88;5049163;28;19925;-78
2023/07/21 08:15:31;;;;;;;;;;;;;;;22.29;49.72;101075.47;5078658;28;19928;-78
2023/07/21 08:17:57;;;;;;;;;;;;;;;22.30;49.73;101070.88;5080989;28;19972;-77
2023/07/21 08:20:23;;;;;;;;;;;;;;;22.31;50.04;101073.44;5048714;28;19921;-78
2023/07/21 08:22:50;;;;;;;;;;;;;;;22.30;49.91;101069.06;5051862;28;19921;-78
2023/07/21 08:25:15;;;;;;;;;;;;;;;22.31;50.14;101073.44;5052680;28;19924;-79
2023/07/21 08:27:40;;;;;;;;;;;;;;;22.32;50.17;101074.28;5051389;28;20259;-78
2023/07/21 08:30:08;;;;;;;;;;;;;;;22.33;50.01;101079.50;5053593;28;19929;-77
2023/07/21 08:32:33;;;;;;;;;;;;;;;22.32;49.89;101077.81;5067884;28;19923;-78
2023/07/21 08:34:59;;;;;;;;;;;;;;;22.33;50.10;101076.78;5053305;28;20461;-79
2023/07/21 08:37:24;;;;;;;;;;;;;;;22.33;49.79;101082.19;5050659;28;20378;-78
2023/07/21 08:39:49;;;;;;;;;;;;;;;22.35;49.91;101073.91;5056096;28;19917;-78
2023/07/21 08:42:14;;;;;;;;;;;;;;;22.35;50.00;101079.31;5048706;28;20511;-78
2023/07/21 08:44:40;;;;;;;;;;;;;;;22.35;49.95;101072.03;5030514;28;20010;-79
2023/07/21 08:47:05;;;;;;;;;;;;;;;22.36;49.72;101076.41;5083562;28;19924;-78
2023/07/21 08:49:30;;;;;;;;;;;;;;;22.36;49.77;101073.72;5049518;28;19956;-79
2023/07/21 08:51:56;;;;;;;;;;;;;;;22.37;49.86;101071.84;5053301;28;20302;-80
2023/07/21 08:54:21;;;;;;;;;;;;;;;22.37;49.59;101072.66;5048922;28;19921;-77
2023/07/21 08:56:46;;;;;;;;;;;;;;;22.38;49.82;101070.81;5052694;28;19935;-76
2023/07/21 08:59:11;;;;;;;;;;;;;;;22.39;49.67;101069.78;5052971;28;19925;-76
2023/07/21 09:01:37;;;;;;;;;;;;;;;22.39;49.80;101067.09;5052522;28;19962;-77
2023/07/21 09:04:02;;;;;;;;;;;;;;;22.39;49.85;101067.09;5047245;28;19924;-77
2023/07/21 09:06:27;;;;;;;;;;;;;;;22.40;49.60;101068.75;5084012;28;19928;-76
2023/07/21 09:08:53;;;;;;;;;;;;;;;22.40;49.80;101066.88;5050540;28;19917;-77
2023/07/21 09:11:18;;;;;;;;;;;;;;;22.41;49.77;101065.84;5050088;28;19944;-74
2023/07/21 09:13:50;;;;;;;;;;;;;;;22.41;49.70;101057.72;5045745;28;20736;-75
2023/07/21 09:16:15;;;;;;;;;;;;;;;22.42;49.60;101058.56;5053492;28;19917;-76
2023/07/21 09:18:41;;;;;;;;;;;;;;;22.42;49.42;101051.25;5082460;28;19947;-75
2023/07/21 09:21:07;;;;;;;;;;;;;;;22.43;49.72;101055.69;5047495;28;19928;-75
2023/07/21 09:23:32;;;;;;;;;;;;;;;22.43;49.58;101055.69;5050312;28;19921;-76
2023/07/21 09:25:58;;;;;;;;;;;;;;;22.43;49.63;101052.97;5063397;28;20054;-76
2023/07/21 09:28:39;;;;;;;;;;;;;;;22.44;49.65;101054.66;5031883;28;19917;-75
2023/07/21 09:31:05;;;;;;;;;;;;;;;22.46;49.63;101058.00;5064596;28;20461;-75
2023/07/21 09:33:30;;;;;;;;;;;;;;;22.48;49.52;101057.00;5051544;28;19920;-75
2023/07/21 09:36:08;;;;;;;;;;;;;;;22.48;49.64;101055.13;5046652;28;19917;-75
2023/07/21 09:38:34;;;;;;;;;;;;;;;22.49;49.56;101059.50;5064441;28;19916;-75
2023/07/21 09:41:03;;;;;;;;;;;;;;;22.49;49.64;101047.81;5082619;28;19936;-75
2023/07/21 09:43:29;;;;;;;;;;;;;;;22.50;49.64;101049.50;5077789;28;19956;-76
2023/07/21 09:45:54;;;;;;;;;;;;;;;22.51;49.44;101052.00;5051769;28;19921;-75
2023/07/21 09:48:20;;;;;;;;;;;;;;;22.53;49.47;101055.38;5051071;28;19923;-74
2023/07/21 09:50:45;;;;;;;;;;;;;;;22.53;49.45;101052.66;5046727;28;19917;-74
2023/07/21 09:53:10;;;;;;;;;;;;;;;22.55;49.57;101057.88;5083618;28;19936;-75
2023/07/21 09:55:36;;;;;;;;;;;;;;;22.55;49.73;101060.59;5049475;28;19921;-75
2023/07/21 09:58:01;;;;;;;;;;;;;;;22.56;49.63;101052.31;5049051;28;20255;-76
2023/07/21 10:00:28;;;;;;;;;;;;;;;22.57;49.83;101053.13;5050036;28;19927;-75
2023/07/21 10:02:53;;;;;;;;;;;;;;;22.57;49.74;101047.72;5079469;28;20015;-74
2023/07/21 10:05:19;;;;;;;;;;;;;;;22.57;49.70;101048.56;5048585;28;19920;-75
2023/07/21 10:07:47;;;;;;;;;;;;;;;22.58;49.84;101046.69;5049413;28;19921;-75
2023/07/21 10:10:13;;;;;;;;;;;;;;;22.59;49.57;101049.19;5027632;28;19929;-75
2023/07/21 10:12:41;;;;;;;;;;;;;;;22.59;49.54;101043.78;5081742;28;19921;-75
2023/07/21 10:15:14;;;;;;;;;;;;;;;22.60;49.53;101048.19;5044829;28;19921;-74
2023/07/21 10:17:59;;;;;;;;;;;;;;;22.61;49.49;101047.16;5050103;28;19920;-74
2023/07/21 10:20:36;;;;;;;;;;;;;;;22.62;49.79;101046.09;5033051;28;19988;-75
2023/07/21 10:23:02;;;;;;;;;;;;;;;22.64;49.52;101048.63;5050287;28;19913;-75
2023/07/21 10:25:27;;;;;;;;;;;;;;;22.64;49.58;101046.78;5049487;28;20393;-73
2023/07/21 10:28:02;;;;;;;;;;;;;;;22.66;49.84;101035.72;5052903;28;19917;-75
2023/07/21 10:30:27;;;;;;;;;;;;;;;22.67;49.99;101042.81;5045384;28;19921;-76
2023/07/21 10:32:52;;;;;;;;;;;;;;;22.67;49.91;101038.25;5049168;28;19945;-76
2023/07/21 10:35:30;;;;;;;;;;;;;;;22.70;49.81;101037.03;5050457;28;19988;-76
2023/07/21 10:38:11;;;;;;;;;;;;;;;22.70;50.07;101037.03;5046946;28;19919;-76
2023/07/21 10:40:36;;;;;;;;;;;;;;;22.70;49.89;101040.56;5049217;28;19916;-75
2023/07/21 10:43:01;;;;;;;;;;;;;;;22.72;49.83;101040.38;5047428;28;19981;-74
2023/07/21 10:45:29;;;;;;;;;;;;;;;22.71;49.80;101036.84;5067537;28;19952;-74
2023/07/21 10:47:55;;;;;;;;;;;;;;;22.74;49.88;101040.22;5048430;28;19913;-71
2023/07/21 10:50:21;;;;;;;;;;;;;;;22.75;49.68;101034.59;5050626;28;20381;-70
2023/07/21 10:52:52;;;;;;;;;;;;;;;22.75;50.39;101040.00;5050438;28;19912;-73
2023/07/21 10:55:18;;;;;;;;;;;;;;;22.77;50.54;101039.81;5079579;28;20058;-74
2023/07/21 10:57:43;;;;;;;;;;;;;;;22.79;50.62;101035.88;5051315;28;20290;-73
2023/07/21 11:00:09;;;;;;;;;;;;;;;22.80;50.37;101028.59;5051206;28;19916;-74
2023/07/21 11:02:38;;;;;;;;;;;;;;;22.80;50.08;101029.41;5047853;28;19917;-75
2023/07/21 11:05:04;;;;;;;;;;;;;;;22.82;50.47;101029.25;5047012;28;19968;-75
2023/07/21 11:07:29;;;;;;;;;;;;;;;22.83;50.30;101029.06;5083412;28;19943;-74
2023/07/21 11:09:58;;;;;;;;;;;;;;;22.85;50.29;101031.56;5043735;28;19929;-76
2023/07/21 11:12:23;;;;;;;;;;;;;;;22.85;50.12;101021.56;5047468;28;19917;-75
2023/07/21 11:14:49;;;;;;;;;;;;;;;22.86;50.16;101025.13;5049031;28;19921;-75
2023/07/21 11:17:14;;;;;;;;;;;;;;;22.86;50.44;101020.53;5034404;28;19920;-76
2023/07/21 11:19:39;;;;;;;;;;;;;;;22.86;50.14;101020.53;5052182;28;19928;-75
2023/07/21 11:22:06;;;;;;;;;;;;;;;22.87;50.29;101019.50;5053041;28;20011;-75
2023/07/21 11:24:31;;;;;;;;;;;;;;;22.86;50.04;101023.25;5083835;28;19917;-76
2023/07/21 11:27:02;;;;;;;;;;;;;;;22.87;50.07;101016.78;5051985;28;20651;-77
2023/07/21 11:29:31;;;;;;;;;;;;;;;22.86;49.70;101015.13;5035688;28;19927;-76
2023/07/21 11:31:56;;;;;;;;;;;;;;;22.87;50.17;101010.53;5033848;28;19928;-77
2023/07/21 11:34:23;;;;;;;;;;;;;;;22.88;50.33;101012.19;5084176;28;19921;-76
2023/07/21 11:36:51;;;;;;;;;;;;;;;22.88;49.88;101006.78;5050971;28;19947;-77
2023/07/21 11:39:20;;;;;;;;;;;;;;;22.88;50.14;101013.03;5053936;28;19948;-76
2023/07/21 11:41:49;;;;;;;;;;;;;;;22.90;49.74;101010.19;5051540;28;19971;-77
2023/07/21 11:44:20;;;;;;;;;;;;;;;22.92;49.81;101005.41;5050577;28;19917;-78
2023/07/21 11:47:18;;;;;;;;;;;;;;;22.92;49.64;101006.22;5051003;28;19913;-77
2023/07/21 11:49:44;;;;;;;;;;;;;;;22.94;49.65;101004.19;5055618;28;19917;-77
2023/07/21 11:52:10;;;;;;;;;;;;;;;22.98;49.60;101009.19;5067225;28;20315;-78
2023/07/21 11:54:36;;;;;;;;;;;;;;;22.99;49.92;101005.47;5082544;28;19924;-78
2023/07/21 11:57:01;;;;;;;;;;;;;;;22.99;49.44;100998.19;5054218;28;19920;-78
2023/07/21 11:59:26;;;;;;;;;;;;;;;23.01;49.61;101000.69;5049121;28;19921;-79
2023/07/21 12:01:53;;;;;;;;;;;;;;;23.01;49.53;101000.69;5051851;28;20592;-78
2023/07/21 12:04:19;;;;;;;;;;;;;;;23.03;49.27;100998.63;5047008;28;19923;-78
2023/07/21 12:06:44;;;;;;;;;;;;;;;23.03;49.51;100990.50;5050602;28;19921;-79
2023/07/21 12:09:09;;;;;;;;;;;;;;;23.04;49.55;100989.47;5054888;28;20429;-78
2023/07/21 12:11:34;;;;;;;;;;;;;;;23.03;49.39;100998.63;5050547;28;19924;-79
2023/07/21 12:14:00;;;;;;;;;;;;;;;23.04;49.51;100994.88;5085143;28;20351;-78
2023/07/21 12:16:26;;;;;;;;;;;;;;;23.03;49.43;100985.91;5052073;28;19921;-78
2023/07/21 12:18:51;;;;;;;;;;;;;;;23.04;49.22;100995.72;5051054;28;19925;-78
2023/07/21 12:21:17;;;;;;;;;;;;;;;22.28;49.14;100864.41;5081646;28;19932;-77
2023/07/21 12:23:43;;;;;;;;;;;;;;;23.04;49.50;100994.88;5086960;28;19916;-77
2023/07/21 12:26:08;;;;;;;;;;;;;;;23.03;49.21;100990.50;5052703;28;19917;-78
2023/07/21 12:28:33;;;;;;;;;;;;;;;23.03;49.21;100988.63;5051902;28;20624;-79
2023/07/21 12:30:58;;;;;;;;;;;;;;;23.03;49.40;100990.50;5082300;28;19996;-78